Galesburg, Illinois
Current Conditions -  °F | °C
As of 9:35 AM on Friday 24 Oct 2014 (Local Time) from KGBG Reporting Station
Moderate Fog Moderate Fog  
Wind Chill: 52°   Ceiling: 300
Heat Index: 52°   Visibility: 0mi
Dew Point: 52°   Wind: 3mph
Humidity: 99%   Direction: 180°S
Pressure: 30.09"   Gusts: NA
Location:  40.95°N, 90.36°W
Report Text: KGBG 241435Z AUTO 18003KT M1/4SM FG OVC003 11/11 A3009 RMK AO2 T01120111
Loading
Personal Weather Stations






























Interactive Weather Map
Tropical Storm Tracking
New forecast layout! Learn more

10-Day Weather Forecast

Advertisements
Track Severe Weather on mobile